Time;durP1;ratioP1;P1;durP2;ratioP2;P2;SDS_P1;SDS_P2;PMS_P1;PMS_P2;Temp;Humidity;BMP_temperature;BMP_pressure;BME280_temperature;BME280_humidity;BME280_pressure;Samples;Min_cycle;Max_cycle;Signal;HPM_P1;HPM_P2
2023/11/17 00:01:20;;;;;;;;;6.33;4.00;;;;;;;;5036087;28;45298;-68
2023/11/17 00:03:45;;;;;;;;;5.00;4.00;;;;;;;;5036142;28;45418;-68
2023/11/17 00:06:10;;;;;;;;;3.67;3.67;;;;;;;;5035561;28;45403;-68
2023/11/17 00:08:36;;;;;;;;;4.33;4.33;;;;;;;;5034287;28;46671;-70
2023/11/17 00:11:01;;;;;;;;;3.67;3.67;;;;;;;;5035442;28;45436;-71
2023/11/17 00:13:26;;;;;;;;;6.33;4.00;;;;;;;;5036699;28;45421;-72
2023/11/17 00:15:51;;;;;;;;;2.33;2.33;;;;;;;;5035749;28;45470;-68
2023/11/17 00:18:17;;;;;;;;;4.00;4.00;;;;;;;;5035092;28;45711;-68
2023/11/17 00:20:43;;;;;;;;;7.00;3.67;;;;;;;;5035870;28;45287;-68
2023/11/17 00:23:08;;;;;;;;;4.33;3.00;;;;;;;;5034965;28;45773;-66
2023/11/17 00:25:33;;;;;;;;;5.00;5.00;;;;;;;;5032385;28;45443;-67
2023/11/17 00:27:59;;;;;;;;;5.33;4.00;;;;;;;;5032771;28;46492;-68
2023/11/17 00:30:24;;;;;;;;;4.33;3.67;;;;;;;;5034755;28;45312;-70
2023/11/17 00:32:49;;;;;;;;;2.00;2.00;;;;;;;;5035424;28;45522;-69
2023/11/17 00:35:14;;;;;;;;;4.00;3.00;;;;;;;;5035338;28;45482;-68
2023/11/17 00:37:39;;;;;;;;;4.67;3.33;;;;;;;;5034688;28;45810;-68
2023/11/17 00:40:06;;;;;;;;;2.00;2.00;;;;;;;;5034942;28;45438;-71
2023/11/17 00:42:31;;;;;;;;;3.00;2.00;;;;;;;;5035254;28;45982;-68
2023/11/17 00:44:57;;;;;;;;;4.00;3.00;;;;;;;;5035771;28;45589;-68
2023/11/17 00:47:22;;;;;;;;;3.00;3.00;;;;;;;;5032994;28;47222;-70
2023/11/17 00:49:47;;;;;;;;;3.00;2.33;;;;;;;;5034299;28;45636;-68
2023/11/17 00:52:12;;;;;;;;;4.00;3.00;;;;;;;;5035774;28;45522;-67
2023/11/17 00:54:42;;;;;;;;;3.00;3.00;;;;;;;;5035987;28;45675;-67
2023/11/17 00:57:11;;;;;;;;;2.00;2.00;;;;;;;;5034784;28;45706;-69
2023/11/17 00:59:38;;;;;;;;;3.33;1.00;;;;;;;;5033640;28;45366;-68
2023/11/17 01:02:04;;;;;;;;;2.00;2.00;;;;;;;;5032977;28;45594;-72
2023/11/17 01:04:30;;;;;;;;;2.00;2.00;;;;;;;;5034251;28;45481;-68
2023/11/17 01:06:56;;;;;;;;;1.00;1.00;;;;;;;;5033728;28;45415;-68
2023/11/17 01:09:21;;;;;;;;;3.33;2.00;;;;;;;;5034972;28;45315;-68
2023/11/17 01:11:46;;;;;;;;;7.00;3.00;;;;;;;;5035950;28;45385;-71
2023/11/17 01:14:11;;;;;;;;;2.00;2.00;;;;;;;;5034862;28;46758;-72
2023/11/17 01:16:37;;;;;;;;;6.00;2.00;;;;;;;;5035460;28;45340;-68
2023/11/17 01:19:02;;;;;;;;;1.33;1.33;;;;;;;;5033356;28;45601;-68
2023/11/17 01:21:28;;;;;;;;;2.00;2.00;;;;;;;;5035712;28;45539;-68
2023/11/17 01:23:53;;;;;;;;;3.00;1.00;;;;;;;;5035589;28;45375;-71
2023/11/17 01:26:18;;;;;;;;;2.00;2.00;;;;;;;;5034435;28;47160;-68
2023/11/17 01:28:44;;;;;;;;;1.67;1.67;;;;;;;;5034332;28;45299;-71
2023/11/17 01:31:10;;;;;;;;;1.00;1.00;;;;;;;;5034962;28;45425;-71
2023/11/17 01:33:35;;;;;;;;;1.67;1.00;;;;;;;;5035820;28;45406;-68
2023/11/17 01:36:00;;;;;;;;;4.00;1.00;;;;;;;;5032736;28;45568;-68
2023/11/17 01:38:26;;;;;;;;;1.00;1.00;;;;;;;;5033524;28;45270;-68
2023/11/17 01:40:52;;;;;;;;;1.00;1.00;;;;;;;;5035245;28;45429;-67
2023/11/17 01:43:17;;;;;;;;;1.00;1.00;;;;;;;;5035029;28;45312;-68
2023/11/17 01:45:44;;;;;;;;;2.00;2.00;;;;;;;;5032421;28;48541;-69
2023/11/17 01:48:09;;;;;;;;;1.00;1.00;;;;;;;;5030649;28;47059;-68
2023/11/17 01:50:34;;;;;;;;;2.00;2.00;;;;;;;;5034666;28;45330;-67
2023/11/17 01:52:59;;;;;;;;;1.00;1.00;;;;;;;;5034176;28;45549;-68
2023/11/17 01:55:25;;;;;;;;;1.33;1.00;;;;;;;;5033854;28;47392;-71
2023/11/17 01:57:50;;;;;;;;;5.00;3.33;;;;;;;;5033474;28;45579;-68
2023/11/17 02:00:16;;;;;;;;;3.00;1.33;;;;;;;;5034301;28;45431;-70
2023/11/17 02:02:47;;;;;;;;;2.67;1.00;;;;;;;;5033335;28;45529;-68
2023/11/17 02:05:14;;;;;;;;;1.00;1.00;;;;;;;;5032118;28;46535;-68
2023/11/17 02:07:50;;;;;;;;;1.00;1.00;;;;;;;;5031871;28;45661;-69
2023/11/17 02:10:28;;;;;;;;;1.00;1.00;;;;;;;;5033780;28;45611;-67
2023/11/17 02:12:59;;;;;;;;;3.00;2.00;;;;;;;;5028104;28;45524;-68
2023/11/17 02:15:26;;;;;;;;;2.67;2.67;;;;;;;;5033704;28;47728;-67
2023/11/17 02:17:54;;;;;;;;;2.00;2.00;;;;;;;;5033892;28;45312;-71
2023/11/17 02:20:20;;;;;;;;;2.00;2.00;;;;;;;;5033875;28;46053;-69
2023/11/17 02:22:49;;;;;;;;;2.00;2.00;;;;;;;;5034128;28;45406;-70
2023/11/17 02:25:28;;;;;;;;;2.00;2.00;;;;;;;;5031898;28;47546;-68
2023/11/17 02:27:59;;;;;;;;;3.00;1.33;;;;;;;;5033645;28;45311;-69
2023/11/17 02:30:26;;;;;;;;;1.33;1.33;;;;;;;;5031971;28;45462;-69
2023/11/17 02:32:54;;;;;;;;;3.00;2.00;;;;;;;;5034263;28;45549;-70
2023/11/17 02:35:28;;;;;;;;;2.00;2.00;;;;;;;;5023859;28;48005;-68
2023/11/17 02:37:57;;;;;;;;;2.00;2.00;;;;;;;;5029974;28;45455;-73
2023/11/17 02:40:23;;;;;;;;;4.00;1.33;;;;;;;;5033418;28;45391;-70
2023/11/17 02:42:49;;;;;;;;;3.00;1.67;;;;;;;;5029893;28;45477;-68
2023/11/17 02:45:19;;;;;;;;;1.00;1.00;;;;;;;;5032743;28;49041;-71
2023/11/17 02:47:46;;;;;;;;;2.00;2.00;;;;;;;;5030268;28;45383;-68
2023/11/17 02:50:18;;;;;;;;;2.00;1.00;;;;;;;;5030881;28;45323;-68
2023/11/17 02:52:48;;;;;;;;;2.00;1.00;;;;;;;;5029588;28;45516;-68
2023/11/17 02:55:15;;;;;;;;;1.00;1.00;;;;;;;;5034240;28;45666;-67
2023/11/17 02:57:42;;;;;;;;;3.67;1.00;;;;;;;;5032910;28;45450;-68
2023/11/17 03:00:08;;;;;;;;;2.00;2.00;;;;;;;;5035360;28;45524;-68
2023/11/17 03:02:33;;;;;;;;;1.67;1.67;;;;;;;;5030164;28;47384;-68
2023/11/17 03:04:58;;;;;;;;;1.67;1.67;;;;;;;;5023621;28;47646;-70
2023/11/17 03:07:24;;;;;;;;;1.00;1.00;;;;;;;;5027505;28;45435;-68
2023/11/17 03:09:51;;;;;;;;;3.00;2.00;;;;;;;;5027794;28;45355;-68
2023/11/17 03:12:17;;;;;;;;;1.67;1.33;;;;;;;;5029483;28;45747;-72
2023/11/17 03:14:42;;;;;;;;;1.33;1.33;;;;;;;;5027726;28;47363;-69
2023/11/17 03:17:09;;;;;;;;;1.00;1.00;;;;;;;;5032142;28;45538;-68
2023/11/17 03:19:34;;;;;;;;;2.00;0.67;;;;;;;;5035111;28;45565;-73
2023/11/17 03:21:59;;;;;;;;;0.33;0.33;;;;;;;;5035400;28;45537;-69
2023/11/17 03:24:25;;;;;;;;;4.67;1.67;;;;;;;;5036370;28;46172;-69
2023/11/17 03:26:52;;;;;;;;;1.67;1.00;;;;;;;;5036076;28;45517;-68
2023/11/17 03:29:18;;;;;;;;;1.00;1.00;;;;;;;;5036843;28;45531;-68
2023/11/17 03:31:53;;;;;;;;;1.00;1.00;;;;;;;;5033449;28;45308;-72
2023/11/17 03:34:23;;;;;;;;;3.00;1.33;;;;;;;;5036885;28;45602;-68
2023/11/17 03:36:48;;;;;;;;;2.67;2.67;;;;;;;;5035093;28;45628;-68
2023/11/17 03:39:14;;;;;;;;;1.33;1.00;;;;;;;;5037047;28;47402;-68
2023/11/17 03:41:39;;;;;;;;;1.00;1.00;;;;;;;;5035381;28;45479;-68
2023/11/17 03:44:06;;;;;;;;;1.33;1.33;;;;;;;;5034686;28;47452;-72
2023/11/17 03:46:31;;;;;;;;;1.00;1.00;;;;;;;;5034581;28;45486;-68
2023/11/17 03:48:56;;;;;;;;;1.00;1.00;;;;;;;;5033361;28;45571;-70
2023/11/17 03:51:22;;;;;;;;;2.00;1.00;;;;;;;;5036850;28;45525;-68
2023/11/17 03:53:48;;;;;;;;;3.00;3.00;;;;;;;;5035580;28;45597;-73
2023/11/17 03:56:13;;;;;;;;;3.00;1.67;;;;;;;;5036222;28;45488;-70
2023/11/17 03:58:38;;;;;;;;;2.33;1.00;;;;;;;;5035504;28;45423;-68
2023/11/17 04:01:04;;;;;;;;;3.33;2.00;;;;;;;;5033763;28;45563;-68
2023/11/17 04:03:29;;;;;;;;;2.00;2.00;;;;;;;;5036213;28;45605;-72
2023/11/17 04:05:54;;;;;;;;;2.67;1.00;;;;;;;;5031862;28;45479;-71
2023/11/17 04:08:20;;;;;;;;;2.00;2.00;;;;;;;;5028110;28;45445;-71
2023/11/17 04:10:45;;;;;;;;;0.33;0.33;;;;;;;;5029819;28;45459;-68
2023/11/17 04:13:11;;;;;;;;;2.00;2.00;;;;;;;;5035524;28;47352;-67
2023/11/17 04:15:36;;;;;;;;;2.67;1.00;;;;;;;;5033491;28;45514;-67
2023/11/17 04:18:01;;;;;;;;;2.25;1.00;;;;;;;;5033105;28;45275;-67
2023/11/17 04:20:26;;;;;;;;;0.00;0.00;;;;;;;;5032850;28;45521;-71
2023/11/17 04:22:51;;;;;;;;;2.00;1.00;;;;;;;;5035166;28;47709;-68
2023/11/17 04:25:17;;;;;;;;;2.00;2.00;;;;;;;;5035497;28;45627;-69
2023/11/17 04:27:43;;;;;;;;;1.00;1.00;;;;;;;;5035216;28;45292;-69
2023/11/17 04:30:08;;;;;;;;;1.00;1.00;;;;;;;;5034190;28;45534;-68
2023/11/17 04:32:35;;;;;;;;;1.67;1.00;;;;;;;;5032638;28;47160;-68
2023/11/17 04:35:00;;;;;;;;;1.00;1.00;;;;;;;;5034339;28;45335;-69
2023/11/17 04:37:25;;;;;;;;;2.00;2.00;;;;;;;;5034022;28;45676;-69
2023/11/17 04:39:51;;;;;;;;;2.00;1.00;;;;;;;;5034912;28;45573;-68
2023/11/17 04:42:16;;;;;;;;;4.00;2.33;;;;;;;;5027133;28;45570;-71
2023/11/17 04:44:42;;;;;;;;;1.00;1.00;;;;;;;;5036043;28;45506;-68
2023/11/17 04:47:09;;;;;;;;;3.67;1.00;;;;;;;;5033674;28;47288;-69
2023/11/17 04:49:36;;;;;;;;;1.33;1.33;;;;;;;;5033857;28;45691;-68
2023/11/17 04:52:02;;;;;;;;;1.67;1.67;;;;;;;;5031988;28;46532;-68
2023/11/17 04:54:27;;;;;;;;;0.00;0.00;;;;;;;;5033526;28;45443;-69
2023/11/17 04:56:52;;;;;;;;;1.00;1.00;;;;;;;;5035346;28;45498;-68
2023/11/17 04:59:17;;;;;;;;;6.33;1.33;;;;;;;;5033333;28;45513;-69
2023/11/17 05:01:43;;;;;;;;;1.00;1.00;;;;;;;;5032948;28;46068;-67
2023/11/17 05:04:08;;;;;;;;;1.00;1.00;;;;;;;;5033903;28;45456;-69
2023/11/17 05:06:35;;;;;;;;;2.00;1.00;;;;;;;;5035199;28;45523;-68
2023/11/17 05:09:00;;;;;;;;;1.67;1.33;;;;;;;;5033848;28;45497;-70
2023/11/17 05:11:25;;;;;;;;;1.00;1.00;;;;;;;;5033082;28;46397;-68
2023/11/17 05:13:50;;;;;;;;;1.00;1.00;;;;;;;;5034312;28;45451;-69
2023/11/17 05:16:16;;;;;;;;;1.33;1.00;;;;;;;;5033855;28;45398;-68
2023/11/17 05:18:42;;;;;;;;;1.00;1.00;;;;;;;;5027129;28;45471;-68
2023/11/17 05:21:07;;;;;;;;;1.00;1.00;;;;;;;;5027644;28;46490;-68
2023/11/17 05:23:34;;;;;;;;;1.00;1.00;;;;;;;;5030421;28;45473;-69
2023/11/17 05:26:00;;;;;;;;;2.00;2.00;;;;;;;;5030376;28;45488;-68
2023/11/17 05:28:26;;;;;;;;;5.33;1.00;;;;;;;;5032027;28;45509;-71
2023/11/17 05:30:52;;;;;;;;;0.33;0.33;;;;;;;;5033630;28;47506;-68
2023/11/17 05:33:18;;;;;;;;;2.00;0.33;;;;;;;;5034522;28;46437;-68
2023/11/17 05:35:43;;;;;;;;;1.00;1.00;;;;;;;;5033495;28;45276;-69
2023/11/17 05:38:08;;;;;;;;;1.00;1.00;;;;;;;;5032180;28;46716;-69
2023/11/17 05:40:33;;;;;;;;;1.00;1.00;;;;;;;;5036673;28;45394;-68
2023/11/17 05:42:59;;;;;;;;;1.00;1.00;;;;;;;;5033067;28;45442;-69
2023/11/17 05:45:24;;;;;;;;;1.00;1.00;;;;;;;;5035445;28;45467;-71
2023/11/17 05:47:49;;;;;;;;;2.00;2.00;;;;;;;;5032961;28;45702;-69
2023/11/17 05:50:14;;;;;;;;;3.00;2.00;;;;;;;;5034461;28;47237;-69
2023/11/17 05:52:41;;;;;;;;;4.00;1.00;;;;;;;;5034270;28;45623;-72
2023/11/17 05:55:06;;;;;;;;;2.33;1.00;;;;;;;;5036364;28;45387;-68
2023/11/17 05:57:32;;;;;;;;;2.00;0.67;;;;;;;;5031432;28;45502;-68
2023/11/17 05:59:57;;;;;;;;;1.33;1.33;;;;;;;;5034813;28;46507;-68
2023/11/17 06:02:22;;;;;;;;;0.00;0.00;;;;;;;;5034965;28;45449;-70
2023/11/17 06:04:48;;;;;;;;;2.00;2.00;;;;;;;;5034801;28;45414;-71
2023/11/17 06:07:13;;;;;;;;;4.00;2.00;;;;;;;;5034256;28;45506;-68
2023/11/17 06:09:38;;;;;;;;;1.00;1.00;;;;;;;;5035034;28;46522;-70
2023/11/17 06:12:05;;;;;;;;;3.00;2.00;;;;;;;;5034075;28;45496;-69
2023/11/17 06:14:30;;;;;;;;;3.00;1.67;;;;;;;;5035531;28;46053;-69
2023/11/17 06:16:55;;;;;;;;;2.00;2.00;;;;;;;;5034727;28;45385;-72
2023/11/17 06:19:22;;;;;;;;;5.00;1.00;;;;;;;;5033857;28;47581;-70
2023/11/17 06:21:47;;;;;;;;;3.00;1.00;;;;;;;;5035320;28;45509;-72
2023/11/17 06:24:15;;;;;;;;;4.00;1.00;;;;;;;;5034671;28;45659;-70
2023/11/17 06:26:45;;;;;;;;;3.00;3.00;;;;;;;;5035687;28;45609;-70
2023/11/17 06:29:10;;;;;;;;;3.00;1.33;;;;;;;;5034545;28;45814;-68
2023/11/17 06:31:36;;;;;;;;;2.00;2.00;;;;;;;;5035049;28;45292;-72
2023/11/17 06:34:01;;;;;;;;;2.00;2.00;;;;;;;;5032149;28;45379;-71
2023/11/17 06:36:26;;;;;;;;;2.00;2.00;;;;;;;;5033026;28;45599;-68
2023/11/17 06:38:51;;;;;;;;;2.00;2.00;;;;;;;;5034735;28;45672;-68
2023/11/17 06:41:17;;;;;;;;;2.00;1.00;;;;;;;;5035212;28;45586;-71
2023/11/17 06:43:42;;;;;;;;;2.00;2.00;;;;;;;;5033893;28;45392;-68
2023/11/17 06:46:10;;;;;;;;;3.00;2.00;;;;;;;;5036231;28;45473;-68
2023/11/17 06:48:37;;;;;;;;;1.67;1.00;;;;;;;;5035690;28;46538;-68
2023/11/17 06:51:05;;;;;;;;;4.00;1.67;;;;;;;;5035980;28;45288;-71
2023/11/17 06:53:30;;;;;;;;;1.00;1.00;;;;;;;;5035616;28;45497;-70
2023/11/17 06:55:56;;;;;;;;;3.00;1.00;;;;;;;;5036099;28;45287;-69
2023/11/17 06:58:21;;;;;;;;;2.75;1.00;;;;;;;;5035196;28;47203;-68
2023/11/17 07:00:46;;;;;;;;;3.00;1.00;;;;;;;;5023637;28;45228;-68
2023/11/17 07:03:11;;;;;;;;;0.00;0.00;;;;;;;;5036054;28;45548;-68
2023/11/17 07:05:40;;;;;;;;;1.67;1.33;;;;;;;;5035120;28;45406;-69
2023/11/17 07:08:05;;;;;;;;;3.00;1.00;;;;;;;;5033892;28;45893;-69
2023/11/17 07:10:31;;;;;;;;;1.67;0.67;;;;;;;;5035267;28;45422;-69
2023/11/17 07:12:58;;;;;;;;;1.00;1.00;;;;;;;;5035283;28;45201;-70
2023/11/17 07:15:24;;;;;;;;;2.00;1.00;;;;;;;;5034897;28;45571;-69
2023/11/17 07:17:51;;;;;;;;;1.00;1.00;;;;;;;;5031812;28;45833;-70
2023/11/17 07:20:20;;;;;;;;;2.33;1.00;;;;;;;;5035016;28;45450;-74
2023/11/17 07:22:46;;;;;;;;;2.00;0.67;;;;;;;;5033159;28;45454;-69
2023/11/17 07:25:11;;;;;;;;;3.67;1.00;;;;;;;;5033590;28;45589;-71
2023/11/17 07:27:39;;;;;;;;;3.00;1.33;;;;;;;;5034539;28;45624;-72
2023/11/17 07:30:07;;;;;;;;;0.67;0.33;;;;;;;;5032846;28;45815;-71
2023/11/17 07:32:33;;;;;;;;;1.00;1.00;;;;;;;;5033166;28;45409;-71
2023/11/17 07:34:58;;;;;;;;;3.33;1.67;;;;;;;;5034363;28;45363;-70
2023/11/17 07:37:24;;;;;;;;;4.67;1.33;;;;;;;;5034867;28;46730;-71
2023/11/17 07:39:49;;;;;;;;;1.00;1.00;;;;;;;;5033415;28;45462;-73
2023/11/17 07:42:14;;;;;;;;;3.00;1.00;;;;;;;;5031931;28;45517;-72
2023/11/17 07:44:40;;;;;;;;;2.00;2.00;;;;;;;;5031335;28;45453;-70
2023/11/17 07:47:05;;;;;;;;;1.00;1.00;;;;;;;;5031768;28;46613;-72
2023/11/17 07:49:30;;;;;;;;;1.67;1.67;;;;;;;;5136559;22;45526;-69
2023/11/17 07:51:57;;;;;;;;;3.67;2.00;;;;;;;;5052630;28;45426;-69
2023/11/17 07:54:22;;;;;;;;;6.33;2.00;;;;;;;;5047099;28;45660;-70
2023/11/17 07:56:48;;;;;;;;;2.00;2.00;;;;;;;;5054560;28;45646;-69
2023/11/17 07:59:13;;;;;;;;;1.67;1.33;;;;;;;;5045415;28;45315;-68
2023/11/17 08:01:39;;;;;;;;;2.33;1.00;;;;;;;;5049091;28;45445;-69
2023/11/17 08:04:05;;;;;;;;;3.33;2.00;;;;;;;;5052617;28;45553;-68
2023/11/17 08:06:30;;;;;;;;;1.67;1.67;;;;;;;;5048770;28;46274;-67
2023/11/17 08:08:56;;;;;;;;;2.00;2.00;;;;;;;;5053853;28;45313;-69
2023/11/17 08:11:22;;;;;;;;;2.00;2.00;;;;;;;;5054418;28;46051;-71
2023/11/17 08:13:47;;;;;;;;;7.33;3.33;;;;;;;;5056654;28;45674;-69
2023/11/17 08:16:13;;;;;;;;;2.67;2.67;;;;;;;;5047248;28;46168;-68
2023/11/17 08:18:38;;;;;;;;;3.00;3.00;;;;;;;;5054099;28;45201;-70
2023/11/17 08:21:05;;;;;;;;;2.00;2.00;;;;;;;;5050211;28;45287;-68
2023/11/17 08:23:30;;;;;;;;;4.00;2.67;;;;;;;;5043992;28;45429;-68
2023/11/17 08:25:55;;;;;;;;;3.00;3.00;;;;;;;;5049758;28;46813;-69
2023/11/17 08:28:22;;;;;;;;;5.00;2.00;;;;;;;;5049208;28;45388;-67
2023/11/17 08:30:47;;;;;;;;;4.67;2.00;;;;;;;;5056096;28;45157;-67
2023/11/17 08:33:13;;;;;;;;;3.00;3.00;;;;;;;;5058823;28;45630;-70
2023/11/17 08:35:38;;;;;;;;;2.67;2.67;;;;;;;;5056567;28;46237;-68
2023/11/17 08:38:03;;;;;;;;;1.33;1.33;;;;;;;;5053132;28;45498;-68
2023/11/17 08:40:29;;;;;;;;;2.67;2.67;;;;;;;;5057395;28;45515;-67
2023/11/17 08:42:54;;;;;;;;;3.00;3.00;;;;;;;;5053185;28;45489;-67
2023/11/17 08:45:19;;;;;;;;;7.33;3.00;;;;;;;;5044128;28;45702;-70
2023/11/17 08:47:50;;;;;;;;;5.33;4.00;;;;;;;;5051065;28;45332;-67
2023/11/17 08:50:15;;;;;;;;;4.00;2.00;;;;;;;;5051659;28;45295;-67
2023/11/17 08:52:42;;;;;;;;;5.00;3.00;;;;;;;;5054567;28;45437;-67
2023/11/17 08:55:08;;;;;;;;;2.00;2.00;;;;;;;;5054715;28;45823;-67
2023/11/17 08:57:33;;;;;;;;;5.33;3.33;;;;;;;;5053695;28;45378;-68
2023/11/17 08:59:59;;;;;;;;;3.00;3.00;;;;;;;;5053643;28;45530;-68
2023/11/17 09:02:25;;;;;;;;;1.00;1.00;;;;;;;;5044298;28;45500;-69
2023/11/17 09:04:52;;;;;;;;;1.00;1.00;;;;;;;;5052663;28;46652;-67
2023/11/17 09:07:17;;;;;;;;;2.00;1.00;;;;;;;;5049559;28;45453;-68
2023/11/17 09:09:42;;;;;;;;;3.67;1.33;;;;;;;;5055785;28;45529;-67
2023/11/17 09:12:09;;;;;;;;;4.00;2.67;;;;;;;;5051024;28;45610;-69
2023/11/17 09:14:36;;;;;;;;;4.00;4.00;;;;;;;;5055508;28;45749;-68
2023/11/17 09:17:06;;;;;;;;;6.33;4.67;;;;;;;;5055736;28;45299;-67
2023/11/17 09:19:32;;;;;;;;;3.00;3.00;;;;;;;;5057303;28;45652;-71
2023/11/17 09:21:57;;;;;;;;;8.33;5.33;;;;;;;;5045514;28;45410;-70
2023/11/17 09:24:25;;;;;;;;;2.00;2.00;;;;;;;;5057167;28;46700;-67
2023/11/17 09:26:50;;;;;;;;;3.67;2.00;;;;;;;;5056728;28;45700;-70
2023/11/17 09:29:15;;;;;;;;;3.00;1.00;;;;;;;;5056352;28;45201;-68
2023/11/17 09:31:41;;;;;;;;;2.00;2.00;;;;;;;;5052972;28;45441;-68
2023/11/17 09:34:08;;;;;;;;;2.00;2.00;;;;;;;;5053576;28;45606;-70
2023/11/17 09:36:34;;;;;;;;;4.00;1.33;;;;;;;;5053055;28;45477;-70
2023/11/17 09:39:00;;;;;;;;;2.33;2.00;;;;;;;;5052045;28;45442;-67
2023/11/17 09:41:25;;;;;;;;;1.67;1.67;;;;;;;;5056426;28;45285;-69
2023/11/17 09:43:57;;;;;;;;;2.67;2.00;;;;;;;;5046474;28;45760;-68
2023/11/17 09:46:26;;;;;;;;;1.33;1.33;;;;;;;;5053337;28;45389;-68
2023/11/17 09:48:55;;;;;;;;;2.00;2.00;;;;;;;;5050280;28;45622;-71
2023/11/17 09:51:20;;;;;;;;;8.00;2.00;;;;;;;;5054971;28;45452;-68
2023/11/17 09:53:47;;;;;;;;;3.00;1.67;;;;;;;;5051016;28;45463;-68
2023/11/17 09:56:13;;;;;;;;;4.00;2.33;;;;;;;;5049139;28;45153;-70
2023/11/17 09:58:42;;;;;;;;;3.00;3.00;;;;;;;;5048501;28;45398;-68
2023/11/17 10:01:10;;;;;;;;;6.00;1.00;;;;;;;;5048215;28;45418;-69
2023/11/17 10:03:36;;;;;;;;;1.33;1.33;;;;;;;;5054323;28;47333;-67
2023/11/17 10:06:04;;;;;;;;;1.67;1.67;;;;;;;;5051850;28;45257;-67
2023/11/17 10:08:29;;;;;;;;;3.00;1.33;;;;;;;;5048916;28;45335;-71
2023/11/17 10:10:55;;;;;;;;;2.00;2.00;;;;;;;;5049767;28;45595;-69
2023/11/17 10:13:23;;;;;;;;;3.00;1.67;;;;;;;;5043462;28;47421;-68
2023/11/17 10:15:52;;;;;;;;;3.00;3.00;;;;;;;;5048682;28;45400;-68
2023/11/17 10:18:29;;;;;;;;;3.00;1.00;;;;;;;;5046173;28;45555;-68
2023/11/17 10:20:57;;;;;;;;;1.33;1.33;;;;;;;;5050526;28;45556;-68
2023/11/17 10:23:23;;;;;;;;;1.00;1.00;;;;;;;;5047068;28;47636;-67
2023/11/17 10:25:53;;;;;;;;;2.67;1.00;;;;;;;;5052830;28;45292;-67
2023/11/17 10:28:19;;;;;;;;;1.00;1.00;;;;;;;;5047220;28;46251;-70
2023/11/17 10:30:46;;;;;;;;;2.33;1.00;;;;;;;;5051891;28;45365;-68
2023/11/17 10:33:28;;;;;;;;;1.67;1.33;;;;;;;;5055750;28;45779;-69
2023/11/17 10:36:03;;;;;;;;;1.00;1.00;;;;;;;;5048116;28;45434;-70
2023/11/17 10:38:34;;;;;;;;;4.00;1.00;;;;;;;;5053886;28;45322;-69
2023/11/17 10:41:30;;;;;;;;;1.00;1.00;;;;;;;;5052894;28;45465;-68
2023/11/17 10:43:58;;;;;;;;;1.33;1.33;;;;;;;;5050437;28;46615;-68
2023/11/17 10:46:27;;;;;;;;;1.00;1.00;;;;;;;;5046940;28;45461;-68
2023/11/17 10:48:55;;;;;;;;;1.33;1.00;;;;;;;;5055591;28;45640;-69
2023/11/17 10:51:21;;;;;;;;;2.00;2.00;;;;;;;;5054648;28;45505;-67
2023/11/17 10:54:05;;;;;;;;;0.00;0.00;;;;;;;;5050198;28;46723;-67
2023/11/17 10:56:32;;;;;;;;;1.33;1.00;;;;;;;;5054443;28;45629;-67
2023/11/17 10:58:58;;;;;;;;;0.33;0.33;;;;;;;;5042868;28;45338;-69
2023/11/17 11:01:30;;;;;;;;;2.00;0.00;;;;;;;;5050504;28;45611;-69
2023/11/17 11:03:55;;;;;;;;;0.00;0.00;;;;;;;;5043076;28;46665;-68
2023/11/17 11:06:20;;;;;;;;;1.33;0.33;;;;;;;;5055280;28;45510;-68
2023/11/17 11:08:53;;;;;;;;;2.00;1.00;;;;;;;;5055141;28;45380;-69
2023/11/17 11:11:23;;;;;;;;;4.00;1.00;;;;;;;;5042654;28;45664;-70
2023/11/17 11:13:53;;;;;;;;;1.00;1.00;;;;;;;;5053128;28;47280;-68
2023/11/17 11:16:18;;;;;;;;;1.00;1.00;;;;;;;;5051144;28;45399;-71
2023/11/17 11:18:45;;;;;;;;;1.00;1.00;;;;;;;;5052389;28;45447;-67
2023/11/17 11:21:11;;;;;;;;;1.00;1.00;;;;;;;;5047068;28;45343;-70
2023/11/17 11:23:37;;;;;;;;;1.33;1.00;;;;;;;;5052596;28;46523;-67
2023/11/17 11:26:05;;;;;;;;;4.00;1.00;;;;;;;;5054258;28;45226;-67
2023/11/17 11:28:31;;;;;;;;;1.67;1.00;;;;;;;;5052213;28;45421;-69
2023/11/17 11:30:57;;;;;;;;;1.00;1.00;;;;;;;;5050884;28;45371;-68
2023/11/17 11:33:23;;;;;;;;;2.00;1.00;;;;;;;;5053204;28;45614;-69
2023/11/17 11:35:50;;;;;;;;;5.00;1.00;;;;;;;;5052855;28;45417;-68
2023/11/17 11:38:15;;;;;;;;;1.00;1.00;;;;;;;;5048046;28;45477;-68
2023/11/17 11:40:43;;;;;;;;;4.00;1.00;;;;;;;;5056089;28;45424;-68
2023/11/17 11:43:08;;;;;;;;;1.33;1.00;;;;;;;;5055967;28;47231;-68
2023/11/17 11:45:34;;;;;;;;;2.33;0.00;;;;;;;;5052268;28;45358;-69
2023/11/17 11:48:00;;;;;;;;;2.00;0.00;;;;;;;;5052598;28;45965;-67
2023/11/17 11:50:25;;;;;;;;;3.00;2.00;;;;;;;;5057457;28;45454;-68
2023/11/17 11:53:09;;;;;;;;;10.67;1.00;;;;;;;;5055472;28;46035;-68
2023/11/17 11:55:35;;;;;;;;;3.00;1.67;;;;;;;;5048251;28;45465;-69
2023/11/17 11:58:00;;;;;;;;;2.00;0.67;;;;;;;;5057219;28;45386;-71
2023/11/17 12:00:26;;;;;;;;;2.00;0.67;;;;;;;;5055645;28;45330;-72
2023/11/17 12:02:58;;;;;;;;;2.33;2.00;;;;;;;;5057293;28;46740;-70
2023/11/17 12:05:23;;;;;;;;;4.00;2.00;;;;;;;;5056282;28;45304;-68
2023/11/17 12:07:49;;;;;;;;;3.67;2.33;;;;;;;;5047265;28;45359;-68
2023/11/17 12:10:15;;;;;;;;;1.67;1.33;;;;;;;;5058307;28;45632;-68
2023/11/17 12:12:41;;;;;;;;;2.67;1.00;;;;;;;;5056090;28;46503;-69
2023/11/17 12:15:07;;;;;;;;;1.33;1.00;;;;;;;;5053664;28;45327;-67
2023/11/17 12:17:41;;;;;;;;;1.33;1.33;;;;;;;;5056003;28;45625;-68
2023/11/17 12:20:21;;;;;;;;;3.00;1.00;;;;;;;;5047684;28;45510;-68
2023/11/17 12:23:00;;;;;;;;;0.00;0.00;;;;;;;;5049983;28;47456;-67
2023/11/17 12:25:29;;;;;;;;;1.00;1.00;;;;;;;;5058204;28;45483;-69
2023/11/17 12:27:55;;;;;;;;;3.00;1.33;;;;;;;;5051809;28;45493;-69
2023/11/17 12:30:21;;;;;;;;;4.00;2.33;;;;;;;;5057340;28;45597;-69
2023/11/17 12:32:48;;;;;;;;;7.33;2.33;;;;;;;;5052402;28;45654;-67
2023/11/17 12:35:14;;;;;;;;;2.33;1.67;;;;;;;;5053166;28;45418;-70
2023/11/17 12:37:40;;;;;;;;;2.00;2.00;;;;;;;;5045780;28;45402;-68
2023/11/17 12:40:14;;;;;;;;;2.33;1.00;;;;;;;;5058130;28;45449;-68
2023/11/17 12:42:40;;;;;;;;;3.00;2.00;;;;;;;;5050601;28;46760;-67
2023/11/17 12:45:06;;;;;;;;;1.33;1.33;;;;;;;;5046163;28;45405;-67
2023/11/17 12:47:31;;;;;;;;;1.00;1.00;;;;;;;;5057778;28;45487;-68
2023/11/17 12:49:57;;;;;;;;;2.00;2.00;;;;;;;;5051784;28;45559;-68
2023/11/17 12:52:22;;;;;;;;;2.00;2.00;;;;;;;;5053084;28;47270;-68
2023/11/17 12:55:06;;;;;;;;;2.00;2.00;;;;;;;;5052408;28;45429;-70
2023/11/17 12:57:32;;;;;;;;;2.00;2.00;;;;;;;;5048020;28;45434;-68
2023/11/17 12:59:57;;;;;;;;;4.33;2.00;;;;;;;;5055179;28;45355;-70
2023/11/17 13:02:23;;;;;;;;;1.00;1.00;;;;;;;;5049872;28;45826;-68
2023/11/17 13:04:48;;;;;;;;;3.00;2.00;;;;;;;;5052183;28;45421;-69
2023/11/17 13:07:13;;;;;;;;;3.67;1.67;;;;;;;;5057775;28;45521;-69
2023/11/17 13:09:39;;;;;;;;;5.00;3.00;;;;;;;;5044289;28;45188;-71
2023/11/17 13:12:06;;;;;;;;;2.00;2.00;;;;;;;;5057030;28;47233;-70
2023/11/17 13:14:31;;;;;;;;;3.00;2.00;;;;;;;;5050798;28;45428;-70
2023/11/17 13:16:56;;;;;;;;;6.67;3.00;;;;;;;;5057241;28;46773;-69
2023/11/17 13:19:22;;;;;;;;;2.00;2.00;;;;;;;;5055944;28;45199;-69
2023/11/17 13:21:48;;;;;;;;;4.67;4.00;;;;;;;;5050331;28;46093;-69
2023/11/17 13:24:13;;;;;;;;;3.00;3.00;;;;;;;;5051421;28;45548;-69
2023/11/17 13:26:38;;;;;;;;;3.00;3.00;;;;;;;;5053942;28;45460;-69
2023/11/17 13:29:13;;;;;;;;;5.00;2.67;;;;;;;;5057164;28;45380;-68
2023/11/17 13:31:38;;;;;;;;;4.00;3.00;;;;;;;;5050152;28;46750;-71
2023/11/17 13:34:10;;;;;;;;;3.00;2.00;;;;;;;;5057223;28;45509;-69
2023/11/17 13:36:35;;;;;;;;;2.33;2.00;;;;;;;;5055173;28;45273;-68
2023/11/17 13:41:39;;;;;;;;;2.00;2.00;;;;;;;;5056591;28;46582;-71
2023/11/17 13:44:05;;;;;;;;;2.67;2.67;;;;;;;;5048895;28;45434;-71
2023/11/17 13:46:33;;;;;;;;;3.00;3.00;;;;;;;;5047579;28;45472;-71
2023/11/17 13:49:03;;;;;;;;;5.00;1.33;;;;;;;;5054008;28;45340;-69
2023/11/17 13:51:32;;;;;;;;;1.67;1.67;;;;;;;;5053893;28;47388;-71
2023/11/17 13:53:57;;;;;;;;;3.33;2.00;;;;;;;;5051855;28;45749;-69
2023/11/17 13:56:23;;;;;;;;;4.00;1.00;;;;;;;;5053457;28;45395;-69
2023/11/17 13:58:48;;;;;;;;;3.67;2.33;;;;;;;;5056977;28;45565;-69
2023/11/17 14:01:14;;;;;;;;;5.33;2.00;;;;;;;;5050823;28;46692;-69
2023/11/17 14:03:39;;;;;;;;;2.33;1.33;;;;;;;;5055422;28;45445;-69
2023/11/17 14:06:05;;;;;;;;;4.67;2.00;;;;;;;;5056538;28;45534;-72
2023/11/17 14:08:30;;;;;;;;;5.00;1.67;;;;;;;;5055486;28;45543;-69
2023/11/17 14:10:55;;;;;;;;;1.00;1.00;;;;;;;;5044061;28;45332;-69
2023/11/17 14:13:20;;;;;;;;;8.00;2.00;;;;;;;;5053496;28;45962;-70
2023/11/17 14:15:46;;;;;;;;;6.67;2.00;;;;;;;;5054791;28;45699;-71
2023/11/17 14:18:11;;;;;;;;;2.00;2.00;;;;;;;;5056095;28;45323;-71
2023/11/17 14:20:36;;;;;;;;;2.67;2.67;;;;;;;;5053119;28;46101;-70
2023/11/17 14:23:03;;;;;;;;;2.00;2.00;;;;;;;;5053405;28;45433;-69
2023/11/17 14:25:28;;;;;;;;;5.33;2.00;;;;;;;;5051447;28;45403;-70
2023/11/17 14:27:53;;;;;;;;;5.00;2.00;;;;;;;;5047715;28;45489;-71
2023/11/17 14:30:20;;;;;;;;;2.67;2.00;;;;;;;;5054798;28;47748;-69
2023/11/17 14:32:45;;;;;;;;;3.00;1.33;;;;;;;;5052932;28;45477;-69
2023/11/17 14:35:10;;;;;;;;;3.00;1.33;;;;;;;;5054563;28;45438;-71
2023/11/17 14:37:35;;;;;;;;;2.00;2.00;;;;;;;;5044484;28;45897;-69
2023/11/17 14:40:02;;;;;;;;;2.00;2.00;;;;;;;;5052912;28;47743;-71
2023/11/17 14:42:28;;;;;;;;;3.00;2.33;;;;;;;;5053365;28;45403;-68